sensor_id;sensor_type;location;lat;lon;timestamp;P1;durP1;ratioP1;P2;durP2;ratioP2
20972;SDS011;10645;52.370;13.314;2023-04-24T00:00:30;0.98;;;0.90;;
20972;SDS011;10645;52.370;13.314;2023-04-24T00:02:57;2.13;;;1.48;;
20972;SDS011;10645;52.370;13.314;2023-04-24T00:05:23;2.05;;;1.92;;
20972;SDS011;10645;52.370;13.314;2023-04-24T00:07:50;2.03;;;1.85;;
20972;SDS011;10645;52.370;13.314;2023-04-24T00:10:19;2.90;;;2.03;;
20972;SDS011;10645;52.370;13.314;2023-04-24T00:12:45;3.00;;;2.28;;
20972;SDS011;10645;52.370;13.314;2023-04-24T00:15:11;1.42;;;1.33;;
20972;SDS011;10645;52.370;13.314;2023-04-24T00:17:37;3.85;;;2.00;;
20972;SDS011;10645;52.370;13.314;2023-04-24T00:20:04;2.17;;;1.98;;
20972;SDS011;10645;52.370;13.314;2023-04-24T00:22:32;2.50;;;2.40;;
20972;SDS011;10645;52.370;13.314;2023-04-24T00:24:58;1.67;;;1.52;;
20972;SDS011;10645;52.370;13.314;2023-04-24T00:27:25;2.50;;;1.98;;
20972;SDS011;10645;52.370;13.314;2023-04-24T00:29:51;3.05;;;1.35;;
20972;SDS011;10645;52.370;13.314;2023-04-24T00:32:17;2.22;;;1.45;;
20972;SDS011;10645;52.370;13.314;2023-04-24T00:34:43;2.15;;;1.23;;
20972;SDS011;10645;52.370;13.314;2023-04-24T00:37:09;1.80;;;1.48;;
20972;SDS011;10645;52.370;13.314;2023-04-24T00:39:36;9.80;;;2.95;;
20972;SDS011;10645;52.370;13.314;2023-04-24T00:42:02;2.13;;;2.03;;
20972;SDS011;10645;52.370;13.314;2023-04-24T00:44:28;2.13;;;1.92;;
20972;SDS011;10645;52.370;13.314;2023-04-24T00:46:54;2.78;;;2.58;;
20972;SDS011;10645;52.370;13.314;2023-04-24T00:49:21;1.67;;;1.58;;
20972;SDS011;10645;52.370;13.314;2023-04-24T00:51:48;2.25;;;1.95;;
20972;SDS011;10645;52.370;13.314;2023-04-24T00:54:14;2.13;;;2.00;;
20972;SDS011;10645;52.370;13.314;2023-04-24T00:56:41;2.72;;;2.25;;
20972;SDS011;10645;52.370;13.314;2023-04-24T00:59:09;12.45;;;2.67;;
20972;SDS011;10645;52.370;13.314;2023-04-24T01:01:37;5.70;;;1.95;;
20972;SDS011;10645;52.370;13.314;2023-04-24T01:04:07;2.03;;;1.90;;
20972;SDS011;10645;52.370;13.314;2023-04-24T01:06:35;4.20;;;2.70;;
20972;SDS011;10645;52.370;13.314;2023-04-24T01:09:04;10.20;;;1.88;;
20972;SDS011;10645;52.370;13.314;2023-04-24T01:11:31;2.67;;;1.70;;
20972;SDS011;10645;52.370;13.314;2023-04-24T01:13:57;2.17;;;1.70;;
20972;SDS011;10645;52.370;13.314;2023-04-24T01:16:24;3.97;;;3.55;;
20972;SDS011;10645;52.370;13.314;2023-04-24T01:18:50;2.15;;;2.05;;
20972;SDS011;10645;52.370;13.314;2023-04-24T01:21:17;2.08;;;1.88;;
20972;SDS011;10645;52.370;13.314;2023-04-24T01:23:46;2.45;;;1.52;;
20972;SDS011;10645;52.370;13.314;2023-04-24T01:26:15;3.60;;;2.38;;
20972;SDS011;10645;52.370;13.314;2023-04-24T01:28:42;2.15;;;1.83;;
20972;SDS011;10645;52.370;13.314;2023-04-24T01:31:08;2.85;;;1.35;;
20972;SDS011;10645;52.370;13.314;2023-04-24T01:33:34;1.60;;;1.50;;
20972;SDS011;10645;52.370;13.314;2023-04-24T01:36:00;1.77;;;1.65;;
20972;SDS011;10645;52.370;13.314;2023-04-24T01:38:27;8.27;;;2.58;;
20972;SDS011;10645;52.370;13.314;2023-04-24T01:40:53;1.95;;;1.75;;
20972;SDS011;10645;52.370;13.314;2023-04-24T01:43:19;3.38;;;2.22;;
20972;SDS011;10645;52.370;13.314;2023-04-24T01:45:45;2.05;;;1.52;;
20972;SDS011;10645;52.370;13.314;2023-04-24T01:48:12;3.25;;;1.73;;
20972;SDS011;10645;52.370;13.314;2023-04-24T01:50:38;1.58;;;1.48;;
20972;SDS011;10645;52.370;13.314;2023-04-24T01:53:05;1.67;;;1.58;;
20972;SDS011;10645;52.370;13.314;2023-04-24T01:55:31;2.05;;;1.95;;
20972;SDS011;10645;52.370;13.314;2023-04-24T01:57:57;0.85;;;0.85;;
20972;SDS011;10645;52.370;13.314;2023-04-24T02:00:25;1.55;;;1.35;;
20972;SDS011;10645;52.370;13.314;2023-04-24T02:02:52;2.00;;;1.65;;
20972;SDS011;10645;52.370;13.314;2023-04-24T02:05:18;2.25;;;1.92;;
20972;SDS011;10645;52.370;13.314;2023-04-24T02:07:45;3.50;;;1.38;;
20972;SDS011;10645;52.370;13.314;2023-04-24T02:10:11;2.78;;;1.70;;
20972;SDS011;10645;52.370;13.314;2023-04-24T02:12:41;2.55;;;1.48;;
20972;SDS011;10645;52.370;13.314;2023-04-24T02:15:07;1.65;;;1.55;;
20972;SDS011;10645;52.370;13.314;2023-04-24T02:17:36;1.73;;;1.63;;
20972;SDS011;10645;52.370;13.314;2023-04-24T02:20:04;2.45;;;1.63;;
20972;SDS011;10645;52.370;13.314;2023-04-24T02:22:31;4.15;;;2.03;;
20972;SDS011;10645;52.370;13.314;2023-04-24T02:25:01;1.75;;;1.65;;
20972;SDS011;10645;52.370;13.314;2023-04-24T02:27:27;1.70;;;1.55;;
20972;SDS011;10645;52.370;13.314;2023-04-24T02:29:53;2.28;;;2.08;;
20972;SDS011;10645;52.370;13.314;2023-04-24T02:32:19;0.85;;;0.85;;
20972;SDS011;10645;52.370;13.314;2023-04-24T02:34:45;1.90;;;1.73;;
20972;SDS011;10645;52.370;13.314;2023-04-24T02:37:11;2.65;;;1.60;;
20972;SDS011;10645;52.370;13.314;2023-04-24T02:39:38;2.88;;;2.33;;
20972;SDS011;10645;52.370;13.314;2023-04-24T02:42:04;1.70;;;1.60;;
20972;SDS011;10645;52.370;13.314;2023-04-24T02:44:30;1.83;;;1.73;;
20972;SDS011;10645;52.370;13.314;2023-04-24T02:46:56;3.95;;;2.60;;
20972;SDS011;10645;52.370;13.314;2023-04-24T02:49:23;2.50;;;1.95;;
20972;SDS011;10645;52.370;13.314;2023-04-24T02:51:49;2.25;;;2.03;;
20972;SDS011;10645;52.370;13.314;2023-04-24T02:54:15;2.75;;;1.88;;
20972;SDS011;10645;52.370;13.314;2023-04-24T02:56:41;1.40;;;1.30;;
20972;SDS011;10645;52.370;13.314;2023-04-24T02:59:08;2.47;;;1.55;;
20972;SDS011;10645;52.370;13.314;2023-04-24T03:01:34;2.42;;;2.22;;
20972;SDS011;10645;52.370;13.314;2023-04-24T03:04:00;2.25;;;1.48;;
20972;SDS011;10645;52.370;13.314;2023-04-24T03:06:27;1.83;;;1.73;;
20972;SDS011;10645;52.370;13.314;2023-04-24T03:08:53;2.13;;;2.03;;
20972;SDS011;10645;52.370;13.314;2023-04-24T03:11:20;3.83;;;2.38;;
20972;SDS011;10645;52.370;13.314;2023-04-24T03:13:46;3.17;;;2.40;;
20972;SDS011;10645;52.370;13.314;2023-04-24T03:16:12;1.33;;;1.33;;
20972;SDS011;10645;52.370;13.314;2023-04-24T03:18:38;2.45;;;1.95;;
20972;SDS011;10645;52.370;13.314;2023-04-24T03:21:06;1.95;;;1.83;;
20972;SDS011;10645;52.370;13.314;2023-04-24T03:23:32;2.20;;;1.88;;
20972;SDS011;10645;52.370;13.314;2023-04-24T03:25:58;3.40;;;2.50;;
20972;SDS011;10645;52.370;13.314;2023-04-24T03:28:24;2.38;;;2.17;;
20972;SDS011;10645;52.370;13.314;2023-04-24T03:30:58;1.85;;;1.75;;
20972;SDS011;10645;52.370;13.314;2023-04-24T03:33:26;4.07;;;2.30;;
20972;SDS011;10645;52.370;13.314;2023-04-24T03:36:01;1.48;;;1.38;;
20972;SDS011;10645;52.370;13.314;2023-04-24T03:38:35;1.83;;;1.55;;
20972;SDS011;10645;52.370;13.314;2023-04-24T03:41:19;2.08;;;1.83;;
20972;SDS011;10645;52.370;13.314;2023-04-24T03:43:52;1.52;;;1.40;;
20972;SDS011;10645;52.370;13.314;2023-04-24T03:46:19;2.15;;;1.92;;
20972;SDS011;10645;52.370;13.314;2023-04-24T03:48:52;2.22;;;2.03;;
20972;SDS011;10645;52.370;13.314;2023-04-24T03:51:21;1.02;;;1.02;;
20972;SDS011;10645;52.370;13.314;2023-04-24T03:53:50;1.92;;;1.83;;
20972;SDS011;10645;52.370;13.314;2023-04-24T03:56:19;1.73;;;1.63;;
20972;SDS011;10645;52.370;13.314;2023-04-24T03:58:46;2.47;;;2.38;;
20972;SDS011;10645;52.370;13.314;2023-04-24T04:01:12;2.20;;;2.10;;
20972;SDS011;10645;52.370;13.314;2023-04-24T04:03:46;2.13;;;2.00;;
20972;SDS011;10645;52.370;13.314;2023-04-24T04:06:15;5.35;;;2.45;;
20972;SDS011;10645;52.370;13.314;2023-04-24T04:08:41;4.10;;;1.83;;
20972;SDS011;10645;52.370;13.314;2023-04-24T04:11:08;1.25;;;1.08;;
20972;SDS011;10645;52.370;13.314;2023-04-24T04:13:34;2.13;;;1.98;;
20972;SDS011;10645;52.370;13.314;2023-04-24T04:16:00;5.05;;;1.90;;
20972;SDS011;10645;52.370;13.314;2023-04-24T04:18:26;2.55;;;2.25;;
20972;SDS011;10645;52.370;13.314;2023-04-24T04:20:52;1.85;;;1.27;;
20972;SDS011;10645;52.370;13.314;2023-04-24T04:23:19;2.22;;;2.13;;
20972;SDS011;10645;52.370;13.314;2023-04-24T04:25:58;1.48;;;1.38;;
20972;SDS011;10645;52.370;13.314;2023-04-24T04:28:33;3.53;;;2.25;;
20972;SDS011;10645;52.370;13.314;2023-04-24T04:31:01;1.88;;;1.65;;
20972;SDS011;10645;52.370;13.314;2023-04-24T04:33:27;2.38;;;1.55;;
20972;SDS011;10645;52.370;13.314;2023-04-24T04:35:53;3.15;;;2.08;;
20972;SDS011;10645;52.370;13.314;2023-04-24T04:38:23;2.42;;;1.83;;
20972;SDS011;10645;52.370;13.314;2023-04-24T04:40:57;2.03;;;1.42;;
20972;SDS011;10645;52.370;13.314;2023-04-24T04:43:29;1.75;;;1.65;;
20972;SDS011;10645;52.370;13.314;2023-04-24T04:45:57;1.27;;;1.15;;
20972;SDS011;10645;52.370;13.314;2023-04-24T04:48:32;1.55;;;1.38;;
20972;SDS011;10645;52.370;13.314;2023-04-24T04:51:00;2.03;;;1.92;;
20972;SDS011;10645;52.370;13.314;2023-04-24T04:53:27;1.42;;;1.33;;
20972;SDS011;10645;52.370;13.314;2023-04-24T04:55:53;3.25;;;1.45;;
20972;SDS011;10645;52.370;13.314;2023-04-24T04:58:23;5.03;;;4.30;;
20972;SDS011;10645;52.370;13.314;2023-04-24T05:00:54;10.38;;;8.73;;
20972;SDS011;10645;52.370;13.314;2023-04-24T05:03:28;28.20;;;17.38;;
20972;SDS011;10645;52.370;13.314;2023-04-24T05:06:02;7.63;;;6.93;;
20972;SDS011;10645;52.370;13.314;2023-04-24T05:08:32;5.55;;;3.08;;
20972;SDS011;10645;52.370;13.314;2023-04-24T05:10:59;6.68;;;4.95;;
20972;SDS011;10645;52.370;13.314;2023-04-24T05:13:27;28.98;;;16.80;;
20972;SDS011;10645;52.370;13.314;2023-04-24T05:15:53;10.15;;;6.65;;
20972;SDS011;10645;52.370;13.314;2023-04-24T05:18:20;1.80;;;1.70;;
20972;SDS011;10645;52.370;13.314;2023-04-24T05:20:46;3.40;;;1.08;;
20972;SDS011;10645;52.370;13.314;2023-04-24T05:23:12;2.67;;;1.23;;
20972;SDS011;10645;52.370;13.314;2023-04-24T05:25:41;3.22;;;0.85;;
20972;SDS011;10645;52.370;13.314;2023-04-24T05:28:11;0.32;;;0.32;;
20972;SDS011;10645;52.370;13.314;2023-04-24T05:30:37;1.27;;;1.20;;
20972;SDS011;10645;52.370;13.314;2023-04-24T05:33:03;2.20;;;0.95;;
20972;SDS011;10645;52.370;13.314;2023-04-24T05:35:34;1.75;;;1.23;;
20972;SDS011;10645;52.370;13.314;2023-04-24T05:38:00;1.17;;;1.05;;
20972;SDS011;10645;52.370;13.314;2023-04-24T05:40:26;1.10;;;1.00;;
20972;SDS011;10645;52.370;13.314;2023-04-24T05:42:52;0.82;;;0.80;;
20972;SDS011;10645;52.370;13.314;2023-04-24T05:45:20;2.25;;;0.60;;
20972;SDS011;10645;52.370;13.314;2023-04-24T05:47:46;0.93;;;0.93;;
20972;SDS011;10645;52.370;13.314;2023-04-24T05:50:12;0.57;;;0.57;;
20972;SDS011;10645;52.370;13.314;2023-04-24T05:52:39;0.98;;;0.90;;
20972;SDS011;10645;52.370;13.314;2023-04-24T05:55:16;0.73;;;0.60;;
20972;SDS011;10645;52.370;13.314;2023-04-24T05:57:43;0.77;;;0.77;;
20972;SDS011;10645;52.370;13.314;2023-04-24T06:00:11;1.25;;;1.17;;
20972;SDS011;10645;52.370;13.314;2023-04-24T06:02:46;0.57;;;0.55;;
20972;SDS011;10645;52.370;13.314;2023-04-24T06:05:13;2.45;;;1.00;;
20972;SDS011;10645;52.370;13.314;2023-04-24T06:07:40;1.00;;;1.00;;
20972;SDS011;10645;52.370;13.314;2023-04-24T06:10:07;1.23;;;0.75;;
20972;SDS011;10645;52.370;13.314;2023-04-24T06:12:40;0.40;;;0.40;;
20972;SDS011;10645;52.370;13.314;2023-04-24T06:15:11;0.30;;;0.30;;
20972;SDS011;10645;52.370;13.314;2023-04-24T06:18:07;1.30;;;0.40;;
20972;SDS011;10645;52.370;13.314;2023-04-24T06:20:35;0.40;;;0.35;;
20972;SDS011;10645;52.370;13.314;2023-04-24T06:23:02;1.58;;;0.73;;
20972;SDS011;10645;52.370;13.314;2023-04-24T06:25:28;1.02;;;1.00;;
20972;SDS011;10645;52.370;13.314;2023-04-24T06:27:55;0.73;;;0.55;;
20972;SDS011;10645;52.370;13.314;2023-04-24T06:30:21;2.55;;;0.68;;
20972;SDS011;10645;52.370;13.314;2023-04-24T06:32:47;2.90;;;1.35;;
20972;SDS011;10645;52.370;13.314;2023-04-24T06:35:14;3.05;;;1.83;;
20972;SDS011;10645;52.370;13.314;2023-04-24T06:37:41;0.68;;;0.68;;
20972;SDS011;10645;52.370;13.314;2023-04-24T06:40:08;1.45;;;0.82;;
20972;SDS011;10645;52.370;13.314;2023-04-24T06:42:35;0.68;;;0.68;;
20972;SDS011;10645;52.370;13.314;2023-04-24T06:45:03;0.20;;;0.20;;
20972;SDS011;10645;52.370;13.314;2023-04-24T06:47:30;1.58;;;1.05;;
20972;SDS011;10645;52.370;13.314;2023-04-24T06:49:57;0.98;;;0.45;;
20972;SDS011;10645;52.370;13.314;2023-04-24T06:52:23;0.20;;;0.20;;
20972;SDS011;10645;52.370;13.314;2023-04-24T06:54:49;0.40;;;0.40;;
20972;SDS011;10645;52.370;13.314;2023-04-24T06:57:15;0.60;;;0.60;;
20972;SDS011;10645;52.370;13.314;2023-04-24T06:59:44;0.40;;;0.32;;
20972;SDS011;10645;52.370;13.314;2023-04-24T07:02:10;0.30;;;0.20;;
20972;SDS011;10645;52.370;13.314;2023-04-24T07:04:36;0.40;;;0.40;;
20972;SDS011;10645;52.370;13.314;2023-04-24T07:07:02;0.70;;;0.55;;
20972;SDS011;10645;52.370;13.314;2023-04-24T07:09:30;0.70;;;0.70;;
20972;SDS011;10645;52.370;13.314;2023-04-24T07:11:56;0.60;;;0.60;;
20972;SDS011;10645;52.370;13.314;2023-04-24T07:14:22;1.38;;;0.40;;
20972;SDS011;10645;52.370;13.314;2023-04-24T07:16:48;0.15;;;0.15;;
20972;SDS011;10645;52.370;13.314;2023-04-24T07:19:14;1.52;;;0.30;;
20972;SDS011;10645;52.370;13.314;2023-04-24T07:21:40;0.55;;;0.47;;
20972;SDS011;10645;52.370;13.314;2023-04-24T07:24:06;0.45;;;0.40;;
20972;SDS011;10645;52.370;13.314;2023-04-24T07:26:36;0.25;;;0.25;;
20972;SDS011;10645;52.370;13.314;2023-04-24T07:29:03;0.15;;;0.15;;
20972;SDS011;10645;52.370;13.314;2023-04-24T07:31:29;0.22;;;0.22;;
20972;SDS011;10645;52.370;13.314;2023-04-24T07:33:56;0.50;;;0.50;;
20972;SDS011;10645;52.370;13.314;2023-04-24T07:36:23;0.20;;;0.20;;
20972;SDS011;10645;52.370;13.314;2023-04-24T07:38:51;0.55;;;0.45;;
20972;SDS011;10645;52.370;13.314;2023-04-24T07:41:18;0.10;;;0.10;;
20972;SDS011;10645;52.370;13.314;2023-04-24T07:43:44;0.08;;;0.08;;
20972;SDS011;10645;52.370;13.314;2023-04-24T07:46:11;0.32;;;0.30;;
20972;SDS011;10645;52.370;13.314;2023-04-24T07:48:37;0.15;;;0.15;;
20972;SDS011;10645;52.370;13.314;2023-04-24T07:51:03;0.55;;;0.45;;
20972;SDS011;10645;52.370;13.314;2023-04-24T07:53:29;0.40;;;0.40;;
20972;SDS011;10645;52.370;13.314;2023-04-24T07:55:55;0.30;;;0.30;;
20972;SDS011;10645;52.370;13.314;2023-04-24T07:58:21;0.63;;;0.60;;
20972;SDS011;10645;52.370;13.314;2023-04-24T08:00:48;0.20;;;0.20;;
20972;SDS011;10645;52.370;13.314;2023-04-24T08:03:14;0.28;;;0.28;;
20972;SDS011;10645;52.370;13.314;2023-04-24T08:05:40;0.40;;;0.40;;
20972;SDS011;10645;52.370;13.314;2023-04-24T08:08:07;0.10;;;0.10;;
20972;SDS011;10645;52.370;13.314;2023-04-24T08:10:34;0.50;;;0.28;;
20972;SDS011;10645;52.370;13.314;2023-04-24T08:13:00;0.28;;;0.20;;
20972;SDS011;10645;52.370;13.314;2023-04-24T08:15:27;0.25;;;0.20;;
20972;SDS011;10645;52.370;13.314;2023-04-24T08:17:53;0.22;;;0.17;;
20972;SDS011;10645;52.370;13.314;2023-04-24T08:20:19;0.03;;;0.03;;
20972;SDS011;10645;52.370;13.314;2023-04-24T08:22:45;0.10;;;0.10;;
20972;SDS011;10645;52.370;13.314;2023-04-24T08:25:12;0.30;;;0.30;;
20972;SDS011;10645;52.370;13.314;2023-04-24T08:27:38;0.22;;;0.22;;
20972;SDS011;10645;52.370;13.314;2023-04-24T08:30:05;0.47;;;0.35;;
20972;SDS011;10645;52.370;13.314;2023-04-24T08:32:32;0.75;;;0.40;;
20972;SDS011;10645;52.370;13.314;2023-04-24T08:34:59;0.22;;;0.22;;
20972;SDS011;10645;52.370;13.314;2023-04-24T08:37:26;0.17;;;0.17;;
20972;SDS011;10645;52.370;13.314;2023-04-24T08:39:52;1.95;;;0.85;;
20972;SDS011;10645;52.370;13.314;2023-04-24T08:42:19;0.38;;;0.38;;
20972;SDS011;10645;52.370;13.314;2023-04-24T08:44:46;0.22;;;0.22;;
20972;SDS011;10645;52.370;13.314;2023-04-24T08:47:14;0.68;;;0.65;;
20972;SDS011;10645;52.370;13.314;2023-04-24T08:49:41;0.20;;;0.20;;
20972;SDS011;10645;52.370;13.314;2023-04-24T08:52:08;1.08;;;0.73;;
20972;SDS011;10645;52.370;13.314;2023-04-24T08:54:34;0.20;;;0.20;;
20972;SDS011;10645;52.370;13.314;2023-04-24T08:57:01;1.10;;;0.75;;
20972;SDS011;10645;52.370;13.314;2023-04-24T08:59:29;0.30;;;0.30;;
20972;SDS011;10645;52.370;13.314;2023-04-24T09:01:56;0.20;;;0.20;;
20972;SDS011;10645;52.370;13.314;2023-04-24T09:04:24;0.50;;;0.47;;
20972;SDS011;10645;52.370;13.314;2023-04-24T09:06:51;0.30;;;0.30;;
20972;SDS011;10645;52.370;13.314;2023-04-24T09:09:21;0.25;;;0.25;;
20972;SDS011;10645;52.370;13.314;2023-04-24T09:11:49;0.43;;;0.38;;
20972;SDS011;10645;52.370;13.314;2023-04-24T09:14:16;0.88;;;0.57;;
20972;SDS011;10645;52.370;13.314;2023-04-24T09:16:43;0.15;;;0.15;;
20972;SDS011;10645;52.370;13.314;2023-04-24T09:19:09;0.15;;;0.15;;
20972;SDS011;10645;52.370;13.314;2023-04-24T09:21:35;1.00;;;0.47;;
20972;SDS011;10645;52.370;13.314;2023-04-24T09:24:03;0.43;;;0.40;;
20972;SDS011;10645;52.370;13.314;2023-04-24T09:26:32;2.28;;;0.10;;
20972;SDS011;10645;52.370;13.314;2023-04-24T09:29:00;0.20;;;0.20;;
20972;SDS011;10645;52.370;13.314;2023-04-24T09:31:27;0.70;;;0.20;;
20972;SDS011;10645;52.370;13.314;2023-04-24T09:36:28;0.20;;;0.20;;
20972;SDS011;10645;52.370;13.314;2023-04-24T09:39:06;0.52;;;0.50;;
20972;SDS011;10645;52.370;13.314;2023-04-24T09:41:43;0.15;;;0.15;;
20972;SDS011;10645;52.370;13.314;2023-04-24T09:44:22;0.30;;;0.30;;
20972;SDS011;10645;52.370;13.314;2023-04-24T09:46:51;0.60;;;0.32;;
20972;SDS011;10645;52.370;13.314;2023-04-24T09:49:23;0.30;;;0.30;;
20972;SDS011;10645;52.370;13.314;2023-04-24T09:51:50;0.65;;;0.35;;
20972;SDS011;10645;52.370;13.314;2023-04-24T09:54:20;0.30;;;0.30;;
20972;SDS011;10645;52.370;13.314;2023-04-24T09:56:50;0.30;;;0.30;;
20972;SDS011;10645;52.370;13.314;2023-04-24T09:59:18;0.52;;;0.52;;
20972;SDS011;10645;52.370;13.314;2023-04-24T10:01:44;0.05;;;0.05;;
20972;SDS011;10645;52.370;13.314;2023-04-24T10:06:51;0.05;;;0.05;;
20972;SDS011;10645;52.370;13.314;2023-04-24T10:09:18;0.20;;;0.20;;
20972;SDS011;10645;52.370;13.314;2023-04-24T10:11:47;0.50;;;0.30;;
20972;SDS011;10645;52.370;13.314;2023-04-24T10:14:15;0.50;;;0.50;;
20972;SDS011;10645;52.370;13.314;2023-04-24T10:16:48;0.22;;;0.22;;
20972;SDS011;10645;52.370;13.314;2023-04-24T10:19:16;0.10;;;0.10;;
20972;SDS011;10645;52.370;13.314;2023-04-24T10:21:44;0.20;;;0.20;;
20972;SDS011;10645;52.370;13.314;2023-04-24T10:24:13;0.32;;;0.32;;
20972;SDS011;10645;52.370;13.314;2023-04-24T10:26:41;0.40;;;0.40;;
20972;SDS011;10645;52.370;13.314;2023-04-24T10:29:07;0.20;;;0.20;;
20972;SDS011;10645;52.370;13.314;2023-04-24T10:31:36;3.33;;;0.50;;
20972;SDS011;10645;52.370;13.314;2023-04-24T10:34:03;0.20;;;0.20;;
20972;SDS011;10645;52.370;13.314;2023-04-24T10:36:32;0.10;;;0.10;;
20972;SDS011;10645;52.370;13.314;2023-04-24T10:39:01;0.20;;;0.20;;
20972;SDS011;10645;52.370;13.314;2023-04-24T10:41:30;0.13;;;0.13;;
20972;SDS011;10645;52.370;13.314;2023-04-24T10:44:10;1.25;;;1.25;;
20972;SDS011;10645;52.370;13.314;2023-04-24T10:46:39;0.63;;;0.43;;
20972;SDS011;10645;52.370;13.314;2023-04-24T10:49:09;0.30;;;0.30;;
20972;SDS011;10645;52.370;13.314;2023-04-24T10:54:29;0.40;;;0.40;;
20972;SDS011;10645;52.370;13.314;2023-04-24T10:59:43;0.45;;;0.45;;
20972;SDS011;10645;52.370;13.314;2023-04-24T11:02:10;0.68;;;0.55;;
20972;SDS011;10645;52.370;13.314;2023-04-24T11:04:39;0.63;;;0.52;;
20972;SDS011;10645;52.370;13.314;2023-04-24T11:07:05;0.45;;;0.43;;
20972;SDS011;10645;52.370;13.314;2023-04-24T11:09:32;1.30;;;0.55;;
20972;SDS011;10645;52.370;13.314;2023-04-24T11:12:07;0.70;;;0.68;;
20972;SDS011;10645;52.370;13.314;2023-04-24T11:17:33;0.80;;;0.60;;
20972;SDS011;10645;52.370;13.314;2023-04-24T11:20:06;0.50;;;0.50;;
20972;SDS011;10645;52.370;13.314;2023-04-24T11:22:35;0.30;;;0.30;;
20972;SDS011;10645;52.370;13.314;2023-04-24T11:25:03;0.52;;;0.35;;
20972;SDS011;10645;52.370;13.314;2023-04-24T11:27:31;0.60;;;0.60;;
20972;SDS011;10645;52.370;13.314;2023-04-24T11:30:06;0.32;;;0.32;;
20972;SDS011;10645;52.370;13.314;2023-04-24T11:35:07;0.73;;;0.52;;
20972;SDS011;10645;52.370;13.314;2023-04-24T11:37:44;0.30;;;0.30;;
20972;SDS011;10645;52.370;13.314;2023-04-24T11:40:12;0.20;;;0.20;;
20972;SDS011;10645;52.370;13.314;2023-04-24T11:42:42;0.45;;;0.45;;
20972;SDS011;10645;52.370;13.314;2023-04-24T11:45:10;0.17;;;0.17;;
20972;SDS011;10645;52.370;13.314;2023-04-24T11:47:38;0.52;;;0.52;;
20972;SDS011;10645;52.370;13.314;2023-04-24T11:50:06;2.83;;;0.75;;
20972;SDS011;10645;52.370;13.314;2023-04-24T11:52:41;0.20;;;0.20;;
20972;SDS011;10645;52.370;13.314;2023-04-24T11:57:47;0.20;;;0.20;;
20972;SDS011;10645;52.370;13.314;2023-04-24T12:00:16;0.45;;;0.45;;
20972;SDS011;10645;52.370;13.314;2023-04-24T12:02:42;0.30;;;0.30;;
20972;SDS011;10645;52.370;13.314;2023-04-24T12:05:08;0.40;;;0.40;;
20972;SDS011;10645;52.370;13.314;2023-04-24T12:07:41;0.20;;;0.20;;
20972;SDS011;10645;52.370;13.314;2023-04-24T12:10:10;0.40;;;0.32;;
20972;SDS011;10645;52.370;13.314;2023-04-24T12:12:36;0.30;;;0.30;;
20972;SDS011;10645;52.370;13.314;2023-04-24T12:15:06;0.30;;;0.28;;
20972;SDS011;10645;52.370;13.314;2023-04-24T12:17:33;0.40;;;0.35;;
20972;SDS011;10645;52.370;13.314;2023-04-24T12:20:01;0.32;;;0.25;;
20972;SDS011;10645;52.370;13.314;2023-04-24T12:22:36;0.03;;;0.03;;
20972;SDS011;10645;52.370;13.314;2023-04-24T12:25:19;0.38;;;0.15;;
20972;SDS011;10645;52.370;13.314;2023-04-24T12:27:51;0.43;;;0.20;;
20972;SDS011;10645;52.370;13.314;2023-04-24T12:30:19;2.92;;;0.30;;
20972;SDS011;10645;52.370;13.314;2023-04-24T12:32:46;0.20;;;0.20;;
20972;SDS011;10645;52.370;13.314;2023-04-24T12:35:13;0.13;;;0.13;;
20972;SDS011;10645;52.370;13.314;2023-04-24T12:37:44;0.10;;;0.10;;
20972;SDS011;10645;52.370;13.314;2023-04-24T12:40:11;0.32;;;0.32;;
20972;SDS011;10645;52.370;13.314;2023-04-24T12:42:42;0.43;;;0.43;;
20972;SDS011;10645;52.370;13.314;2023-04-24T12:45:09;0.20;;;0.20;;
20972;SDS011;10645;52.370;13.314;2023-04-24T12:47:37;0.93;;;0.90;;
20972;SDS011;10645;52.370;13.314;2023-04-24T12:50:05;1.45;;;0.32;;
20972;SDS011;10645;52.370;13.314;2023-04-24T12:52:33;0.43;;;0.35;;
20972;SDS011;10645;52.370;13.314;2023-04-24T12:55:00;0.40;;;0.40;;
20972;SDS011;10645;52.370;13.314;2023-04-24T12:57:27;0.20;;;0.20;;
20972;SDS011;10645;52.370;13.314;2023-04-24T12:59:55;0.50;;;0.43;;
20972;SDS011;10645;52.370;13.314;2023-04-24T13:02:22;0.08;;;0.08;;
20972;SDS011;10645;52.370;13.314;2023-04-24T13:04:49;0.40;;;0.40;;
20972;SDS011;10645;52.370;13.314;2023-04-24T13:07:16;0.10;;;0.10;;
20972;SDS011;10645;52.370;13.314;2023-04-24T13:09:43;0.17;;;0.17;;
20972;SDS011;10645;52.370;13.314;2023-04-24T13:12:10;0.13;;;0.13;;
20972;SDS011;10645;52.370;13.314;2023-04-24T13:14:37;0.13;;;0.13;;
20972;SDS011;10645;52.370;13.314;2023-04-24T13:17:03;0.77;;;0.77;;
20972;SDS011;10645;52.370;13.314;2023-04-24T13:19:29;0.55;;;0.35;;
20972;SDS011;10645;52.370;13.314;2023-04-24T13:22:00;0.82;;;0.38;;
20972;SDS011;10645;52.370;13.314;2023-04-24T13:24:26;0.22;;;0.22;;
20972;SDS011;10645;52.370;13.314;2023-04-24T13:26:53;0.10;;;0.10;;
20972;SDS011;10645;52.370;13.314;2023-04-24T13:29:19;0.28;;;0.28;;
20972;SDS011;10645;52.370;13.314;2023-04-24T13:31:46;0.28;;;0.28;;
20972;SDS011;10645;52.370;13.314;2023-04-24T13:34:12;0.50;;;0.40;;
20972;SDS011;10645;52.370;13.314;2023-04-24T13:36:39;0.40;;;0.40;;
20972;SDS011;10645;52.370;13.314;2023-04-24T13:39:05;0.03;;;0.03;;
20972;SDS011;10645;52.370;13.314;2023-04-24T13:41:32;0.10;;;0.10;;
20972;SDS011;10645;52.370;13.314;2023-04-24T13:43:58;0.55;;;0.32;;
20972;SDS011;10645;52.370;13.314;2023-04-24T13:46:25;0.30;;;0.30;;
20972;SDS011;10645;52.370;13.314;2023-04-24T13:48:51;1.65;;;0.40;;
20972;SDS011;10645;52.370;13.314;2023-04-24T13:51:18;0.30;;;0.30;;
20972;SDS011;10645;52.370;13.314;2023-04-24T13:53:44;0.25;;;0.20;;
20972;SDS011;10645;52.370;13.314;2023-04-24T13:56:10;0.22;;;0.22;;
20972;SDS011;10645;52.370;13.314;2023-04-24T13:58:38;0.13;;;0.13;;
20972;SDS011;10645;52.370;13.314;2023-04-24T14:01:04;0.65;;;0.55;;
20972;SDS011;10645;52.370;13.314;2023-04-24T14:03:30;0.82;;;0.20;;
20972;SDS011;10645;52.370;13.314;2023-04-24T14:05:56;0.20;;;0.15;;
20972;SDS011;10645;52.370;13.314;2023-04-24T14:08:23;0.17;;;0.17;;
20972;SDS011;10645;52.370;13.314;2023-04-24T14:10:49;0.60;;;0.45;;
20972;SDS011;10645;52.370;13.314;2023-04-24T14:13:16;0.50;;;0.40;;
20972;SDS011;10645;52.370;13.314;2023-04-24T14:15:42;0.50;;;0.50;;
20972;SDS011;10645;52.370;13.314;2023-04-24T14:18:08;0.28;;;0.28;;
20972;SDS011;10645;52.370;13.314;2023-04-24T14:20:35;0.85;;;0.65;;
20972;SDS011;10645;52.370;13.314;2023-04-24T14:23:01;0.10;;;0.10;;
20972;SDS011;10645;52.370;13.314;2023-04-24T14:25:27;0.50;;;0.50;;
20972;SDS011;10645;52.370;13.314;2023-04-24T14:27:53;0.20;;;0.20;;
20972;SDS011;10645;52.370;13.314;2023-04-24T14:30:19;0.38;;;0.38;;
20972;SDS011;10645;52.370;13.314;2023-04-24T14:32:45;15.02;;;0.85;;
20972;SDS011;10645;52.370;13.314;2023-04-24T14:35:12;0.20;;;0.20;;
20972;SDS011;10645;52.370;13.314;2023-04-24T14:37:39;0.32;;;0.32;;
20972;SDS011;10645;52.370;13.314;2023-04-24T14:40:06;0.32;;;0.32;;
20972;SDS011;10645;52.370;13.314;2023-04-24T14:42:33;0.10;;;0.10;;
20972;SDS011;10645;52.370;13.314;2023-04-24T14:45:00;0.10;;;0.10;;
20972;SDS011;10645;52.370;13.314;2023-04-24T14:47:27;1.92;;;0.98;;
20972;SDS011;10645;52.370;13.314;2023-04-24T14:49:53;0.10;;;0.10;;
20972;SDS011;10645;52.370;13.314;2023-04-24T14:52:19;0.40;;;0.40;;
20972;SDS011;10645;52.370;13.314;2023-04-24T14:54:45;0.43;;;0.43;;